Time;durP1;ratioP1;P1;durP2;ratioP2;P2;SDS_P1;SDS_P2;PMS_P1;PMS_P2;Temp;Humidity;BMP_temperature;BMP_pressure;BME280_temperature;BME280_humidity;BME280_pressure;Samples;Min_cycle;Max_cycle;Signal;HPM_P1;HPM_P2
2022/10/02 00:01:10;;;;;;;10.00;5.17;;;20.80;54.50;;;;;;5004063;28;20532;-80
2022/10/02 00:03:38;;;;;;;8.60;5.50;;;20.80;54.40;;;;;;4993153;28;20425;-80
2022/10/02 00:06:09;;;;;;;7.33;5.03;;;20.80;54.50;;;;;;4988469;28;20465;-81
2022/10/02 00:08:38;;;;;;;8.17;5.57;;;20.80;54.60;;;;;;4997654;28;20804;-81
2022/10/02 00:11:08;;;;;;;7.17;5.10;;;20.80;54.60;;;;;;5000497;28;20519;-80
2022/10/02 00:13:38;;;;;;;10.53;5.43;;;20.80;54.70;;;;;;4999513;28;20500;-80
2022/10/02 00:16:10;;;;;;;9.30;5.50;;;20.80;54.50;;;;;;5000462;28;20431;-80
2022/10/02 00:18:38;;;;;;;9.03;5.23;;;20.80;54.80;;;;;;4999383;28;20411;-80
2022/10/02 00:21:09;;;;;;;8.87;5.73;;;20.80;54.50;;;;;;4999478;28;20507;-80
2022/10/02 00:23:39;;;;;;;7.97;5.93;;;20.80;54.60;;;;;;4999395;28;20512;-80
2022/10/02 00:26:09;;;;;;;7.50;5.07;;;20.70;54.60;;;;;;4997671;28;20428;-80
2022/10/02 00:28:41;;;;;;;7.47;5.30;;;20.70;54.70;;;;;;4999924;28;20412;-80
2022/10/02 00:31:23;;;;;;;13.70;5.77;;;20.70;54.50;;;;;;4999935;28;20460;-80
2022/10/02 00:33:57;;;;;;;6.80;4.83;;;20.70;54.80;;;;;;4995602;28;20501;-80
2022/10/02 00:36:32;;;;;;;6.90;4.83;;;20.70;54.70;;;;;;4998284;28;20437;-80
2022/10/02 00:39:03;;;;;;;7.50;4.80;;;20.70;54.70;;;;;;4999690;28;20427;-80
2022/10/02 00:42:03;;;;;;;5.03;4.33;;;20.70;55.00;;;;;;4999781;28;20460;-80
2022/10/02 00:44:46;;;;;;;7.80;5.13;;;20.70;54.70;;;;;;4989976;28;20431;-80
2022/10/02 00:47:17;;;;;;;6.87;4.97;;;20.70;54.90;;;;;;4999075;28;20445;-80
2022/10/02 00:49:58;;;;;;;7.73;5.07;;;20.70;54.80;;;;;;5002087;28;20460;-81
2022/10/02 00:52:36;;;;;;;6.27;4.77;;;20.60;54.70;;;;;;5001528;28;20479;-81
2022/10/02 00:55:27;;;;;;;10.03;4.93;;;20.60;54.80;;;;;;5002320;28;20437;-81
2022/10/02 00:58:17;;;;;;;8.60;5.13;;;20.60;54.90;;;;;;5004284;28;20437;-81
2022/10/02 01:00:48;;;;;;;7.33;5.10;;;20.60;55.00;;;;;;5003763;28;20481;-81
2022/10/02 01:03:17;;;;;;;10.23;4.57;;;20.60;55.00;;;;;;4999178;28;20457;-81
2022/10/02 01:05:45;;;;;;;10.00;4.80;;;20.60;55.00;;;;;;5003977;28;20439;-81
2022/10/02 01:08:14;;;;;;;10.17;4.50;;;20.60;54.90;;;;;;5004409;28;20430;-81
2022/10/02 01:10:42;;;;;;;8.63;4.67;;;20.60;55.00;;;;;;5003579;28;20461;-81
2022/10/02 01:13:10;;;;;;;7.60;4.40;;;20.60;54.90;;;;;;5003503;28;20453;-81
2022/10/02 01:15:40;;;;;;;6.47;4.50;;;20.60;55.00;;;;;;5004536;28;20434;-81
2022/10/02 01:18:09;;;;;;;5.37;4.00;;;20.60;55.00;;;;;;5004023;28;20437;-81
2022/10/02 01:20:38;;;;;;;10.80;5.27;;;20.50;54.90;;;;;;4999885;28;20485;-81
2022/10/02 01:23:15;;;;;;;6.57;4.33;;;20.50;55.10;;;;;;4998673;28;20404;-81
2022/10/02 01:25:44;;;;;;;6.00;4.40;;;20.50;55.10;;;;;;4993302;28;21044;-81
2022/10/02 01:28:12;;;;;;;6.77;4.03;;;20.50;54.90;;;;;;5003801;28;20457;-81
2022/10/02 01:30:43;;;;;;;7.40;4.80;;;20.50;55.10;;;;;;4983694;28;20545;-81
2022/10/02 01:33:11;;;;;;;10.07;3.90;;;20.50;54.90;;;;;;4982691;28;20854;-81
2022/10/02 01:35:39;;;;;;;6.50;4.37;;;20.50;55.10;;;;;;4978505;28;20412;-81
2022/10/02 01:38:28;;;;;;;8.73;4.77;;;20.50;55.10;;;;;;4991254;28;20500;-81
2022/10/02 01:40:57;;;;;;;6.43;4.30;;;20.50;55.00;;;;;;4998180;28;20482;-82
2022/10/02 01:43:26;;;;;;;6.87;4.00;;;20.50;55.30;;;;;;4980017;28;20458;-81
2022/10/02 01:45:58;;;;;;;5.07;3.80;;;20.50;55.00;;;;;;4976672;28;20457;-82
2022/10/02 01:48:34;;;;;;;5.00;4.10;;;20.50;55.00;;;;;;4987588;28;20479;-83
2022/10/02 01:51:12;;;;;;;9.23;3.93;;;20.50;55.10;;;;;;4994224;28;20468;-82
2022/10/02 01:53:44;;;;;;;4.20;3.63;;;20.50;55.00;;;;;;4975605;28;20413;-82
2022/10/02 01:56:16;;;;;;;6.67;3.87;;;20.40;55.20;;;;;;4993308;28;20534;-82
2022/10/02 01:58:48;;;;;;;5.33;3.63;;;20.40;55.20;;;;;;4977243;28;20521;-81
2022/10/02 02:01:21;;;;;;;5.50;4.00;;;20.50;55.40;;;;;;4985881;28;20477;-81
2022/10/02 02:03:54;;;;;;;4.50;3.53;;;20.50;55.30;;;;;;4996472;28;20392;-81
2022/10/02 02:06:27;;;;;;;5.67;3.67;;;20.50;55.00;;;;;;4983263;28;20457;-81
2022/10/02 02:09:00;;;;;;;6.30;3.50;;;20.50;55.10;;;;;;4996363;28;20444;-81
2022/10/02 02:11:30;;;;;;;4.80;3.57;;;20.40;55.10;;;;;;4993511;28;20556;-81
2022/10/02 02:14:00;;;;;;;4.53;3.93;;;20.40;55.40;;;;;;4992110;28;20432;-82
2022/10/02 02:16:31;;;;;;;5.33;3.67;;;20.40;55.20;;;;;;4992171;28;20505;-81
2022/10/02 02:19:01;;;;;;;5.50;3.50;;;20.30;55.30;;;;;;4983775;28;20479;-81
2022/10/02 02:21:30;;;;;;;9.30;3.93;;;20.40;55.40;;;;;;4996190;28;20477;-82
2022/10/02 02:24:00;;;;;;;6.03;3.50;;;20.30;55.20;;;;;;4996261;28;20426;-81
2022/10/02 02:26:29;;;;;;;4.00;3.33;;;20.40;55.50;;;;;;4988816;28;20479;-82
2022/10/02 02:29:00;;;;;;;5.33;3.40;;;20.30;55.30;;;;;;4995908;28;20445;-81
2022/10/02 02:31:29;;;;;;;4.87;3.40;;;20.30;55.30;;;;;;4993995;28;20477;-82
2022/10/02 02:33:59;;;;;;;4.97;2.97;;;20.30;55.50;;;;;;4996188;28;20507;-82
2022/10/02 02:36:29;;;;;;;6.83;3.50;;;20.30;55.40;;;;;;4996176;28;20441;-82
2022/10/02 02:38:58;;;;;;;3.57;3.10;;;20.20;55.30;;;;;;4996157;28;20400;-82
2022/10/02 02:41:28;;;;;;;4.37;3.10;;;20.20;55.50;;;;;;4996818;28;20512;-82
2022/10/02 02:43:59;;;;;;;4.80;3.27;;;20.20;55.70;;;;;;4997615;28;20438;-82
2022/10/02 02:46:28;;;;;;;3.80;3.30;;;20.20;55.70;;;;;;4996788;28;20423;-82
2022/10/02 02:48:58;;;;;;;4.10;3.53;;;20.20;55.40;;;;;;4995579;28;20527;-82
2022/10/02 02:51:28;;;;;;;3.77;2.90;;;20.20;55.40;;;;;;4996468;28;20459;-81
2022/10/02 02:53:58;;;;;;;3.20;2.90;;;20.10;55.70;;;;;;4996584;28;20453;-82
2022/10/02 02:56:26;;;;;;;3.47;2.83;;;20.20;55.80;;;;;;4997322;28;20460;-82
2022/10/02 02:58:55;;;;;;;3.90;3.10;;;20.10;55.50;;;;;;4997613;28;20419;-82
2022/10/02 03:01:24;;;;;;;4.77;2.87;;;20.10;55.80;;;;;;4997575;28;20522;-82
2022/10/02 03:03:52;;;;;;;4.53;3.00;;;20.10;55.70;;;;;;4995245;28;20426;-82
2022/10/02 03:06:31;;;;;;;5.40;3.30;;;20.10;55.80;;;;;;4978900;28;20417;-82
2022/10/02 03:09:00;;;;;;;3.63;3.33;;;20.10;55.80;;;;;;4990435;28;20450;-82
2022/10/02 03:11:36;;;;;;;5.50;3.00;;;20.10;55.90;;;;;;5000115;28;20420;-82
2022/10/02 03:14:09;;;;;;;3.40;2.70;;;20.10;55.60;;;;;;4993553;28;20490;-82
2022/10/02 03:16:42;;;;;;;6.13;3.37;;;20.00;55.60;;;;;;4993928;28;20422;-82
2022/10/02 03:19:16;;;;;;;3.17;2.63;;;20.10;56.00;;;;;;4993600;28;20443;-82
2022/10/02 03:21:48;;;;;;;5.40;2.57;;;20.00;55.80;;;;;;4991736;28;20517;-82
2022/10/02 03:24:17;;;;;;;3.77;2.67;;;20.10;55.90;;;;;;4975541;28;20439;-82
2022/10/02 03:26:47;;;;;;;5.67;3.10;;;20.10;56.00;;;;;;4974871;28;20421;-82
2022/10/02 03:29:18;;;;;;;3.37;2.90;;;20.00;55.60;;;;;;4974733;28;20458;-82
2022/10/02 03:31:47;;;;;;;2.73;2.53;;;20.00;55.70;;;;;;4986801;28;20476;-82
2022/10/02 03:34:15;;;;;;;3.00;2.53;;;20.00;56.00;;;;;;4993543;28;20531;-82
2022/10/02 03:36:43;;;;;;;4.80;2.73;;;20.00;55.80;;;;;;4993947;28;20476;-82
2022/10/02 03:39:11;;;;;;;3.23;2.57;;;20.00;56.00;;;;;;4985624;28;20432;-82
2022/10/02 03:41:51;;;;;;;4.67;2.67;;;20.00;56.00;;;;;;4993994;28;20477;-82
2022/10/02 03:44:19;;;;;;;4.43;2.93;;;20.00;55.90;;;;;;4997362;28;20980;-82
2022/10/02 03:46:48;;;;;;;4.37;2.73;;;19.90;55.80;;;;;;4997318;28;20441;-82
2022/10/02 03:49:16;;;;;;;5.00;2.77;;;19.90;55.90;;;;;;4990231;28;20442;-82
2022/10/02 03:51:44;;;;;;;2.50;2.30;;;19.90;55.90;;;;;;4989966;28;20453;-83
2022/10/02 03:54:15;;;;;;;3.40;2.90;;;19.90;56.20;;;;;;4999266;28;20456;-82
2022/10/02 03:56:46;;;;;;;2.90;2.50;;;19.90;56.00;;;;;;4989798;28;20454;-82
2022/10/02 03:59:17;;;;;;;4.53;2.50;;;19.90;56.30;;;;;;4989649;28;20457;-82
2022/10/02 04:01:49;;;;;;;3.57;2.73;;;19.90;56.00;;;;;;4978310;28;20474;-82
2022/10/02 04:04:18;;;;;;;2.57;2.23;;;19.90;56.00;;;;;;4994541;28;20520;-80
2022/10/02 04:06:47;;;;;;;3.20;2.27;;;19.90;56.00;;;;;;4997761;28;20449;-82
2022/10/02 04:09:17;;;;;;;7.13;2.97;;;19.90;56.00;;;;;;4998003;28;20433;-82
2022/10/02 04:11:47;;;;;;;2.60;2.40;;;19.90;55.90;;;;;;4998122;28;20461;-81
2022/10/02 04:14:18;;;;;;;2.77;2.50;;;19.90;56.30;;;;;;4997856;28;20424;-81
2022/10/02 04:16:50;;;;;;;2.77;2.53;;;19.90;56.10;;;;;;4998468;28;20418;-82
2022/10/02 04:19:21;;;;;;;4.40;2.20;;;19.90;56.00;;;;;;4997947;28;20430;-81
2022/10/02 04:21:51;;;;;;;2.87;2.50;;;19.80;56.10;;;;;;4979037;28;20485;-81
2022/10/02 04:24:21;;;;;;;2.40;2.20;;;19.80;56.00;;;;;;4992020;28;20442;-81
2022/10/02 04:26:55;;;;;;;2.77;2.57;;;19.90;56.20;;;;;;4998022;28;20454;-82
2022/10/02 04:29:25;;;;;;;3.10;2.37;;;19.90;56.10;;;;;;4998559;28;20456;-82
2022/10/02 04:31:58;;;;;;;2.63;2.43;;;19.80;56.00;;;;;;4995858;28;20469;-82
2022/10/02 04:34:27;;;;;;;3.37;2.10;;;19.80;56.40;;;;;;5000619;28;20415;-82
2022/10/02 04:37:02;;;;;;;2.40;2.20;;;19.90;56.30;;;;;;5004468;28;20412;-81
2022/10/02 04:39:38;;;;;;;3.10;2.17;;;19.90;56.20;;;;;;5004020;28;20456;-82
2022/10/02 04:42:20;;;;;;;3.73;2.27;;;19.90;56.30;;;;;;5003683;28;20484;-82
2022/10/02 04:45:02;;;;;;;1.97;1.87;;;19.80;56.10;;;;;;5002819;28;20476;-80
2022/10/02 04:47:42;;;;;;;3.50;2.37;;;19.80;56.50;;;;;;5002477;28;20432;-81
2022/10/02 04:50:21;;;;;;;4.03;2.70;;;19.80;56.20;;;;;;5000085;28;20477;-83
2022/10/02 04:52:57;;;;;;;2.87;2.50;;;19.80;56.30;;;;;;4979216;28;20444;-82
2022/10/02 04:55:37;;;;;;;2.27;2.07;;;19.90;56.30;;;;;;4978819;28;20460;-82
2022/10/02 04:58:21;;;;;;;1.97;1.87;;;19.80;56.20;;;;;;4979003;28;20446;-83
2022/10/02 05:00:55;;;;;;;4.33;1.97;;;19.90;56.30;;;;;;4981377;28;20466;-82
2022/10/02 05:03:32;;;;;;;2.40;2.20;;;19.90;56.40;;;;;;4999623;28;20532;-82
2022/10/02 05:06:15;;;;;;;3.97;2.53;;;19.90;56.30;;;;;;5001044;28;20449;-81
2022/10/02 05:08:56;;;;;;;1.90;1.70;;;19.90;56.40;;;;;;4989815;28;20454;-81
2022/10/02 05:11:34;;;;;;;3.53;2.17;;;19.90;56.30;;;;;;4991879;28;20529;-82
2022/10/02 05:14:14;;;;;;;3.43;2.00;;;19.90;56.40;;;;;;5002882;28;20468;-82
2022/10/02 05:16:57;;;;;;;3.00;2.33;;;19.90;56.20;;;;;;5003027;28;20422;-82
2022/10/02 05:19:39;;;;;;;2.60;1.83;;;19.90;56.50;;;;;;5002927;28;20424;-82
2022/10/02 05:22:18;;;;;;;3.07;1.90;;;19.80;56.20;;;;;;5002315;28;20487;-81
2022/10/02 05:24:50;;;;;;;2.77;2.20;;;19.90;56.40;;;;;;4995058;28;20417;-81
2022/10/02 05:27:32;;;;;;;3.07;1.93;;;19.80;56.30;;;;;;4987084;28;20489;-82
2022/10/02 05:30:06;;;;;;;2.07;1.87;;;19.80;56.40;;;;;;4997097;28;20461;-81
2022/10/02 05:32:46;;;;;;;1.83;1.73;;;19.90;56.50;;;;;;5003143;28;20850;-82
2022/10/02 05:35:25;;;;;;;2.60;1.87;;;19.90;56.50;;;;;;5002498;28;20523;-81
2022/10/02 05:37:58;;;;;;;1.93;1.83;;;19.90;56.20;;;;;;5003121;28;20412;-81
2022/10/02 05:40:28;;;;;;;1.97;1.83;;;19.90;56.60;;;;;;4997225;28;20486;-82
2022/10/02 05:42:58;;;;;;;4.73;2.13;;;19.80;56.20;;;;;;4995608;28;20524;-82
2022/10/02 05:45:27;;;;;;;2.60;1.87;;;19.80;56.30;;;;;;4985355;28;20438;-82
2022/10/02 05:47:59;;;;;;;3.47;2.00;;;19.80;56.60;;;;;;5003694;28;20464;-81
2022/10/02 05:50:30;;;;;;;2.50;2.30;;;19.80;56.30;;;;;;5004037;28;20447;-82
2022/10/02 05:53:00;;;;;;;2.10;1.73;;;19.80;56.50;;;;;;5002304;28;20437;-82
2022/10/02 05:55:32;;;;;;;1.80;1.70;;;19.80;56.60;;;;;;5000464;28;20456;-81
2022/10/02 05:58:03;;;;;;;2.13;1.93;;;19.80;56.60;;;;;;4999232;28;20460;-82
2022/10/02 06:00:35;;;;;;;1.87;1.77;;;19.80;56.40;;;;;;5001948;28;20469;-82
2022/10/02 06:03:09;;;;;;;4.30;2.07;;;19.80;56.30;;;;;;5002652;28;20477;-82
2022/10/02 06:05:43;;;;;;;2.30;1.97;;;19.80;56.60;;;;;;5001968;28;20441;-82
2022/10/02 06:08:12;;;;;;;2.07;1.87;;;19.80;56.60;;;;;;4999170;28;20440;-82
2022/10/02 06:10:43;;;;;;;2.10;1.90;;;19.80;56.50;;;;;;5003165;28;20457;-83
2022/10/02 06:13:14;;;;;;;1.70;1.60;;;19.90;56.50;;;;;;5004541;28;20504;-83
2022/10/02 06:15:44;;;;;;;1.80;1.70;;;19.80;56.60;;;;;;5000000;28;20437;-83
2022/10/02 06:18:15;;;;;;;2.20;2.00;;;19.80;56.50;;;;;;4992252;28;20832;-82
2022/10/02 06:20:47;;;;;;;2.00;1.80;;;19.80;56.60;;;;;;4999544;28;20445;-82
2022/10/02 06:23:16;;;;;;;2.50;1.97;;;19.80;56.50;;;;;;5004499;28;20476;-82
2022/10/02 06:25:47;;;;;;;1.70;1.50;;;19.80;56.70;;;;;;5003883;28;20477;-81
2022/10/02 06:28:17;;;;;;;1.70;1.60;;;19.90;56.60;;;;;;4997926;28;20497;-82
2022/10/02 06:30:47;;;;;;;2.13;2.00;;;19.90;56.50;;;;;;5001811;28;20469;-83
2022/10/02 06:33:16;;;;;;;2.80;1.90;;;19.90;56.70;;;;;;4999216;28;20437;-82
2022/10/02 06:36:16;;;;;;;4.10;1.77;;;20.00;56.60;;;;;;4992222;28;20423;-81
2022/10/02 06:39:07;;;;;;;2.60;2.00;;;20.00;56.50;;;;;;4989956;28;20453;-84
2022/10/02 06:41:38;;;;;;;1.70;1.60;;;20.00;56.50;;;;;;5005341;28;20523;-83
2022/10/02 06:44:15;;;;;;;2.77;2.00;;;20.00;56.40;;;;;;5001034;28;20461;-83
2022/10/02 06:46:48;;;;;;;2.40;1.67;;;20.00;56.50;;;;;;4998327;28;20461;-81
2022/10/02 06:49:25;;;;;;;1.80;1.57;;;20.00;56.40;;;;;;4993502;28;20446;-81
2022/10/02 06:51:59;;;;;;;3.27;1.90;;;20.00;56.50;;;;;;4988878;28;20468;-81
2022/10/02 06:54:35;;;;;;;2.43;2.03;;;20.00;56.40;;;;;;4985592;28;20485;-78
2022/10/02 06:57:11;;;;;;;2.30;1.80;;;20.00;56.10;;;;;;4984297;28;20430;-79
2022/10/02 06:59:54;;;;;;;2.47;1.87;;;20.00;56.50;;;;;;4987741;28;20527;-79
2022/10/02 07:02:31;;;;;;;2.90;2.17;;;20.00;56.60;;;;;;4987408;28;20405;-79
2022/10/02 07:05:15;;;;;;;3.27;1.87;;;20.00;56.40;;;;;;4988583;28;20481;-78
2022/10/02 07:07:49;;;;;;;1.73;1.63;;;20.10;56.30;;;;;;4988174;28;20464;-77
2022/10/02 07:10:25;;;;;;;2.17;1.80;;;20.10;56.20;;;;;;4992751;28;20441;-79
2022/10/02 07:13:15;;;;;;;2.63;1.60;;;20.10;56.50;;;;;;4983501;28;20519;-79
2022/10/02 07:16:05;;;;;;;2.57;1.60;;;20.10;56.40;;;;;;4994841;28;20428;-79
2022/10/02 07:18:41;;;;;;;1.63;1.53;;;20.10;56.40;;;;;;4996642;28;20460;-77
2022/10/02 07:21:12;;;;;;;1.40;1.30;;;20.00;56.40;;;;;;4978724;28;20440;-79
2022/10/02 07:23:47;;;;;;;2.40;1.50;;;20.10;56.30;;;;;;4981164;28;20457;-79
2022/10/02 07:26:29;;;;;;;2.07;1.63;;;20.10;56.60;;;;;;4980600;28;20429;-79
2022/10/02 07:29:03;;;;;;;2.40;1.70;;;20.10;56.40;;;;;;4979531;28;20426;-79
2022/10/02 07:31:35;;;;;;;2.17;1.60;;;20.20;56.60;;;;;;4980203;28;20475;-79
2022/10/02 07:34:12;;;;;;;1.47;1.33;;;20.20;56.50;;;;;;4998443;28;20432;-79
2022/10/02 07:36:46;;;;;;;2.40;1.47;;;20.20;56.30;;;;;;4987203;28;20453;-79
2022/10/02 07:39:24;;;;;;;3.73;1.60;;;20.20;56.30;;;;;;4994555;28;20489;-79
2022/10/02 07:42:08;;;;;;;2.00;1.80;;;20.30;56.60;;;;;;4998521;28;20465;-79
2022/10/02 07:44:47;;;;;;;2.63;1.53;;;20.40;56.50;;;;;;4978174;28;20469;-79
2022/10/02 07:47:23;;;;;;;2.13;1.40;;;20.40;56.10;;;;;;4979637;28;20456;-78
2022/10/02 07:49:51;;;;;;;1.93;1.50;;;20.40;56.20;;;;;;4977721;28;20848;-78
2022/10/02 07:52:24;;;;;;;2.50;1.50;;;20.40;56.40;;;;;;4981146;28;20499;-79
2022/10/02 07:55:10;;;;;;;1.73;1.47;;;20.60;56.10;;;;;;4996020;28;20468;-78
2022/10/02 07:57:40;;;;;;;1.60;1.50;;;20.80;56.20;;;;;;4995615;28;20458;-78
2022/10/02 08:00:12;;;;;;;2.80;2.10;;;20.90;55.80;;;;;;4996391;28;20452;-78
2022/10/02 08:02:45;;;;;;;2.10;1.63;;;21.10;55.50;;;;;;4997716;28;20429;-78
2022/10/02 08:05:18;;;;;;;1.47;1.37;;;21.20;55.40;;;;;;4977502;28;20478;-77
2022/10/02 08:07:47;;;;;;;1.73;1.60;;;21.20;55.20;;;;;;4977457;28;20425;-77
2022/10/02 08:10:18;;;;;;;2.87;1.50;;;21.30;55.30;;;;;;4987819;28;20465;-77
2022/10/02 08:12:49;;;;;;;1.97;1.50;;;21.40;55.10;;;;;;4996222;28;20978;-77
2022/10/02 08:15:19;;;;;;;1.90;1.70;;;21.40;55.00;;;;;;4996363;28;20496;-78
2022/10/02 08:17:49;;;;;;;2.13;1.43;;;21.40;55.10;;;;;;4989756;28;20437;-77
2022/10/02 08:20:22;;;;;;;2.70;1.80;;;21.40;55.00;;;;;;4992397;28;20531;-78
2022/10/02 08:22:58;;;;;;;2.23;1.50;;;21.50;54.80;;;;;;4995431;28;20514;-78
2022/10/02 08:25:30;;;;;;;1.80;1.47;;;21.40;54.70;;;;;;4975776;28;20470;-77
2022/10/02 08:27:59;;;;;;;1.53;1.20;;;21.50;55.00;;;;;;4976680;28;20446;-77
2022/10/02 08:30:27;;;;;;;2.60;1.70;;;21.40;55.00;;;;;;4976934;28;20477;-78
2022/10/02 08:32:55;;;;;;;3.87;1.80;;;21.30;54.90;;;;;;4976427;28;20417;-77
2022/10/02 08:35:27;;;;;;;2.07;1.60;;;21.30;55.20;;;;;;4976101;28;20458;-77
2022/10/02 08:38:11;;;;;;;1.77;1.67;;;21.40;55.30;;;;;;4989860;28;20492;-77
2022/10/02 08:41:03;;;;;;;1.67;1.10;;;21.40;55.20;;;;;;4994316;28;20502;-78
2022/10/02 08:43:47;;;;;;;2.63;1.50;;;21.40;55.20;;;;;;4980814;28;20497;-78
2022/10/02 08:46:43;;;;;;;8.23;2.07;;;21.30;55.30;;;;;;4993791;28;20444;-85
2022/10/02 08:49:34;;;;;;;11.70;2.47;;;21.00;57.50;;;;;;5001904;28;20426;-83
2022/10/02 08:52:27;;;;;;;11.93;2.60;;;20.20;61.90;;;;;;4978195;28;20486;-83
2022/10/02 08:55:22;;;;;;;13.37;2.50;;;19.40;65.90;;;;;;4976058;28;20456;-83
2022/10/02 08:58:11;;;;;;;8.73;2.63;;;19.10;68.90;;;;;;4981499;28;20445;-84
2022/10/02 09:00:45;;;;;;;12.47;3.57;;;19.20;71.10;;;;;;4988820;28;20444;-84
2022/10/02 09:03:54;;;;;;;15.03;2.83;;;19.70;71.10;;;;;;4996624;28;20456;-82
2022/10/02 09:06:46;;;;;;;10.37;2.70;;;20.30;74.70;;;;;;4986592;28;20473;-83
2022/10/02 09:09:33;;;;;;;14.90;2.63;;;21.20;71.30;;;;;;4987165;28;20457;-83
2022/10/02 09:12:20;;;;;;;9.20;2.57;;;21.70;68.00;;;;;;4984658;28;20459;-82
2022/10/02 09:14:53;;;;;;;7.63;2.30;;;22.10;65.80;;;;;;4990827;28;20450;-82
2022/10/02 09:17:49;;;;;;;10.00;2.33;;;22.50;64.60;;;;;;4981456;28;20462;-82
2022/10/02 09:20:48;;;;;;;8.90;2.60;;;22.70;62.90;;;;;;4988500;28;20477;-83
2022/10/02 09:23:44;;;;;;;6.80;2.50;;;22.80;61.80;;;;;;4993094;28;20436;-82
2022/10/02 09:26:19;;;;;;;7.80;2.60;;;22.90;60.90;;;;;;4999765;28;20447;-82
2022/10/02 09:29:02;;;;;;;7.70;2.70;;;23.00;60.50;;;;;;4998397;28;20428;-82
2022/10/02 09:32:02;;;;;;;6.63;2.10;;;23.10;59.90;;;;;;4975828;28;20444;-83
2022/10/02 09:35:10;;;;;;;4.60;2.13;;;23.20;59.50;;;;;;4986014;28;20457;-82
2022/10/02 09:37:50;;;;;;;7.27;2.50;;;23.30;59.10;;;;;;4993566;28;20431;-82
2022/10/02 09:40:31;;;;;;;5.83;2.50;;;23.40;58.90;;;;;;4998280;28;20469;-82
2022/10/02 09:43:19;;;;;;;8.93;2.63;;;23.50;58.40;;;;;;4979583;28;20464;-81
2022/10/02 09:46:12;;;;;;;6.83;2.50;;;23.60;58.60;;;;;;4983273;28;20482;-81
2022/10/02 09:49:20;;;;;;;8.47;2.50;;;23.80;58.70;;;;;;4999081;28;20419;-81
2022/10/02 09:52:26;;;;;;;9.20;2.53;;;24.10;58.60;;;;;;4982489;28;20440;-82
2022/10/02 09:55:28;;;;;;;7.57;2.17;;;24.60;58.50;;;;;;4993270;28;20450;-82
2022/10/02 09:58:25;;;;;;;6.53;2.83;;;25.00;57.50;;;;;;4995052;28;20449;-81
2022/10/02 10:01:06;;;;;;;5.50;2.20;;;25.20;57.20;;;;;;5001361;28;20514;-83
2022/10/02 10:03:46;;;;;;;5.17;2.20;;;25.30;56.80;;;;;;4992901;28;20448;-82
2022/10/02 10:06:39;;;;;;;6.50;2.17;;;25.40;56.80;;;;;;4999635;28;20451;-82
2022/10/02 10:09:40;;;;;;;4.53;2.37;;;25.70;56.80;;;;;;5002172;28;20456;-82
2022/10/02 10:12:36;;;;;;;2.40;1.80;;;26.00;56.60;;;;;;4995381;28;20451;-82
2022/10/02 10:15:29;;;;;;;5.00;2.13;;;26.40;56.20;;;;;;4983695;28;20460;-82
2022/10/02 10:18:29;;;;;;;5.20;2.40;;;26.80;55.40;;;;;;4980738;28;20450;-83
2022/10/02 10:21:23;;;;;;;3.50;2.00;;;27.00;54.80;;;;;;4978759;28;20462;-83
2022/10/02 10:24:16;;;;;;;6.83;2.27;;;27.00;54.50;;;;;;4981612;28;20438;-83
2022/10/02 10:27:23;;;;;;;2.60;1.60;;;26.90;54.20;;;;;;4991077;28;20469;-82
2022/10/02 10:30:17;;;;;;;4.73;2.03;;;27.10;54.50;;;;;;4993788;28;20425;-83
2022/10/02 10:33:18;;;;;;;2.63;1.90;;;27.30;54.30;;;;;;4996717;28;20419;-82
2022/10/02 10:35:55;;;;;;;7.07;1.90;;;27.30;54.00;;;;;;5000062;28;20463;-81
2022/10/02 10:38:37;;;;;;;3.07;1.87;;;27.60;54.00;;;;;;4995473;28;20453;-82
2022/10/02 10:41:15;;;;;;;3.43;1.80;;;27.80;53.90;;;;;;4988706;28;20452;-79
2022/10/02 10:44:17;;;;;;;4.27;1.77;;;28.10;53.60;;;;;;5001295;28;20420;-80
2022/10/02 10:47:06;;;;;;;2.73;1.57;;;28.30;53.20;;;;;;4971805;28;20488;-81
2022/10/02 10:50:01;;;;;;;2.80;1.77;;;28.70;53.00;;;;;;4999873;28;20503;-82
2022/10/02 10:52:37;;;;;;;4.60;1.73;;;28.80;52.50;;;;;;5004232;28;20496;-81
2022/10/02 10:55:12;;;;;;;2.77;1.80;;;29.20;52.30;;;;;;5007247;28;20441;-81
2022/10/02 10:58:00;;;;;;;2.93;1.97;;;29.60;51.90;;;;;;5004978;28;20431;-79
2022/10/02 11:00:30;;;;;;;17.90;5.00;;;29.80;49.10;;;;;;5000965;28;20469;-76
2022/10/02 11:03:13;;;;;;;8.40;2.90;;;29.30;46.70;;;;;;4997523;28;20450;-76
2022/10/02 11:06:21;;;;;;;10.23;2.33;;;28.80;46.70;;;;;;4987666;28;20527;-77
2022/10/02 11:09:16;;;;;;;8.17;2.57;;;27.90;46.70;;;;;;4971579;28;20452;-76
2022/10/02 11:11:54;;;;;;;7.40;2.20;;;27.50;47.60;;;;;;4999541;28;20476;-78
2022/10/02 11:14:28;;;;;;;10.80;2.53;;;27.40;47.00;;;;;;4994689;28;20461;-78
2022/10/02 11:17:50;;;;;;;12.23;2.83;;;27.40;48.00;;;;;;5003571;28;20433;-78
2022/10/02 11:20:43;;;;;;;11.77;2.30;;;27.10;47.60;;;;;;4969652;28;20515;-76
2022/10/02 11:23:42;;;;;;;10.10;2.67;;;27.00;47.90;;;;;;4974371;28;20432;-77
2022/10/02 11:26:20;;;;;;;10.53;2.47;;;27.20;47.60;;;;;;5004032;28;20451;-77
2022/10/02 11:29:05;;;;;;;7.93;2.13;;;27.40;47.70;;;;;;5001336;28;20448;-76
2022/10/02 11:31:49;;;;;;;12.07;2.83;;;27.40;46.90;;;;;;4984828;28;20473;-76
2022/10/02 11:34:36;;;;;;;7.70;1.87;;;27.40;46.60;;;;;;4997407;28;20461;-75
2022/10/02 11:37:12;;;;;;;5.20;2.00;;;27.30;46.70;;;;;;5001531;28;20444;-77
2022/10/02 11:39:54;;;;;;;5.80;2.13;;;27.90;46.50;;;;;;4984572;28;20428;-75
2022/10/02 11:42:54;;;;;;;5.67;2.07;;;28.40;44.10;;;;;;4979983;28;20449;-75
2022/10/02 11:45:45;;;;;;;5.10;2.10;;;28.60;43.60;;;;;;4978582;28;20474;-78
2022/10/02 11:48:25;;;;;;;4.40;1.93;;;29.50;44.90;;;;;;4997391;28;20543;-77
2022/10/02 11:54:53;;;;;;;5.30;2.40;;;31.00;41.50;;;;;;4989771;28;20436;-78
2022/10/02 12:01:13;;;;;;;17.33;2.33;;;32.60;37.40;;;;;;5001078;28;20412;-78
2022/10/02 12:03:51;;;;;;;22.47;2.70;;;31.10;39.20;;;;;;4989150;28;20511;-77
2022/10/02 12:06:25;;;;;;;7.90;2.37;;;29.90;40.80;;;;;;4999516;28;20476;-77
2022/10/02 12:08:58;;;;;;;13.33;2.37;;;29.20;42.70;;;;;;4989482;28;20457;-76
2022/10/02 12:11:31;;;;;;;17.90;3.13;;;28.60;44.10;;;;;;4980117;28;20493;-78
2022/10/02 12:14:26;;;;;;;46.20;4.57;;;28.20;45.20;;;;;;4978763;28;20505;-77
2022/10/02 12:17:01;;;;;;;24.67;3.60;;;29.30;45.80;;;;;;4983000;28;20450;-76
2022/10/02 12:28:10;;;;;;;13.37;2.53;;;35.00;35.20;;;;;;5002825;28;20444;-79
2022/10/02 12:30:40;;;;;;;18.33;3.57;;;35.70;33.70;;;;;;4997579;28;20529;-78
2022/10/02 12:33:20;;;;;;;11.80;3.03;;;36.10;32.90;;;;;;5007536;28;20457;-79
2022/10/02 12:36:07;;;;;;;19.50;3.07;;;36.40;32.60;;;;;;4999373;28;20453;-78
2022/10/02 12:38:43;;;;;;;18.93;3.20;;;36.70;32.20;;;;;;4985510;28;20462;-77
2022/10/02 12:41:17;;;;;;;11.00;2.60;;;35.70;32.90;;;;;;5001821;28;20449;-76
2022/10/02 12:44:24;;;;;;;11.90;3.00;;;33.90;35.20;;;;;;5002690;28;20416;-77
2022/10/02 12:47:03;;;;;;;7.40;2.43;;;32.30;37.60;;;;;;4985623;28;20482;-80
2022/10/02 12:49:44;;;;;;;18.00;3.90;;;31.30;39.80;;;;;;5000590;28;20453;-80
2022/10/02 12:52:48;;;;;;;21.23;4.83;;;30.50;42.20;;;;;;5007136;28;20224;-81
2022/10/02 12:55:52;;;;;;;8.73;2.13;;;31.00;41.40;;;;;;5001499;28;20449;-82
2022/10/02 12:58:22;;;;;;;13.17;2.93;;;33.00;37.40;;;;;;5005555;28;20456;-82
2022/10/02 13:01:04;;;;;;;6.97;2.40;;;31.90;39.00;;;;;;5003674;28;20952;-79
2022/10/02 13:03:57;;;;;;;13.23;3.00;;;31.30;40.90;;;;;;5000717;28;20457;-80
2022/10/02 13:06:45;;;;;;;15.00;3.27;;;30.90;41.80;;;;;;5001878;28;20465;-81
2022/10/02 13:09:33;;;;;;;13.87;3.03;;;32.60;42.20;;;;;;5005224;28;20422;-80
2022/10/02 13:12:19;;;;;;;13.60;2.50;;;34.80;38.30;;;;;;4997766;28;20597;-80
2022/10/02 13:15:02;;;;;;;9.50;2.47;;;36.20;35.80;;;;;;4990606;28;20510;-81
2022/10/02 13:17:32;;;;;;;8.63;2.33;;;37.40;34.00;;;;;;5008676;28;20441;-81
2022/10/02 13:20:04;;;;;;;8.90;2.90;;;38.20;32.70;;;;;;4997471;28;20437;-78
2022/10/02 13:22:37;;;;;;;41.70;5.23;;;37.90;29.40;;;;;;5000733;28;20457;-79
2022/10/02 13:25:24;;;;;;;11.00;2.93;;;35.30;30.10;;;;;;5001136;28;20496;-81
2022/10/02 13:27:55;;;;;;;9.97;2.80;;;32.00;33.10;;;;;;4997954;28;20540;-80
2022/10/02 13:30:23;;;;;;;9.37;2.33;;;30.20;36.40;;;;;;4998505;28;20519;-80
2022/10/02 13:33:07;;;;;;;9.80;2.10;;;30.00;39.40;;;;;;4999508;28;20452;-79
2022/10/02 13:35:44;;;;;;;5.50;1.63;;;31.10;36.10;;;;;;5000170;28;20453;-81
2022/10/02 13:38:21;;;;;;;6.03;2.00;;;32.10;32.90;;;;;;5001291;28;20410;-79
2022/10/02 13:40:54;;;;;;;9.73;2.73;;;32.20;33.60;;;;;;4999117;28;20469;-81
2022/10/02 13:43:41;;;;;;;7.20;2.87;;;30.80;32.90;;;;;;4990586;28;20449;-81
2022/10/02 13:46:15;;;;;;;11.33;2.40;;;29.10;39.00;;;;;;4994159;28;20517;-80
2022/10/02 13:48:53;;;;;;;10.80;2.97;;;28.60;39.30;;;;;;5003376;28;20464;-80
2022/10/02 13:51:24;;;;;;;9.30;2.77;;;28.00;39.20;;;;;;5002277;28;20504;-82
2022/10/02 13:54:22;;;;;;;5.97;1.90;;;28.20;38.80;;;;;;4999150;28;20477;-82
2022/10/02 13:56:55;;;;;;;6.50;2.10;;;27.20;39.60;;;;;;4999846;28;20445;-82